Main page
METAR-TAF:

METAR-TAF

Airports :

Gloucestershire Airport

Gloucester, England

latitude: 51-54N, longitude: 002-10W, elevation: 29 m

Current weather observation

The report was made 2 hours and 53 minutes ago, at 17:20 UTC
Calm wind
Temperature 6°C
Humidity 81%
Pressure 1037 hPa
Visibility 10 km or more
Broken clouds at a height of 3000 ft

METAR: EGBJ 221720Z 00000KT 9999 BKN030 06/03 Q1037

Time: 20:13 (20:13 UTC)

Forecast

The report was made 3 hours and 20 minutes ago, at 16:53 UTC
Forecast valid from 22 at 18 UTC to 23 at 03 UTC
Wind 2 kt from variable directions
Visibility 10 km or more
Broken clouds at a height of 3000 ft

TAF: EGBJ 221653Z 2218/2303 VRB02KT 9999 BKN030

Weather observations and forecasts of more than 4000 airports (METAR and TAF reports).

The available stations are represented by yellow and red dots on the map.

Hover mouse over dot to see the name of the station.

Then click to see weather observations and forecasts.

To change the map : click on the green buttons with a black cross to zoom in, on the green button with a dash to zoom out, or on the green arrows for adjacent maps.


METAR-TAF: